Lewiston, ID (83501)

5:50 PM PDT on May 25, 2015 (GMT -0700)
Hepton Lane | | Change Station
CLOSE
Current Station
Personal Weather Station
Location: Lewiston, ID
Elevation: 1358 ft
Nearby Weather Stations

Elev 1358 ft 46.40 °N, 116.93 °W | Updated 28 seconds ago

Mostly Cloudy
Mostly Cloudy
73.0 °F
Feels Like 77 °F
N
4.0
Wind Variable Wind from North
Gusts 4.9 mph

Today
High -- | Low -- °F
--% Chance of Precip.
Yesterday
High -- | Low -- °F
Precip. -- in
5:04 AM 8:25 PM
First Quarter, 53% visible
Pressure 29.83 in
Visibility 10.0 miles
Clouds Mostly Cloudy 6500 ft
Heat Index 77 °F
Dew Point 51 °F
Humidity 46%
Rainfall 0.00 in
Snow Depth Not available.
UV 1.0 out of 12
Pollen 8.30 out of 12
Air Quality Not available.
Flu Activity Sporadic
METAR KLWS 252356Z AUTO 36006KT 10SM BKN065 23/08 A2984 RMK AO2 SLP100 60000 T02280083 10239 20167 56010 $

More Conditions Fewer Conditions

Pressure 29.83 in
Visibility 10.0 miles
Clouds Mostly Cloudy 6500 ft
Heat Index 77 °F
Dew Point 51 °F
Humidity 46%
Rainfall 0.00 in
Snow Depth Not available.
UV 1.0 out of 12
Pollen 8.30 out of 12
Air Quality Not available.
Flu Activity Sporadic
METAR KLWS 252356Z AUTO 36006KT 10SM BKN065 23/08 A2984 RMK AO2 SLP100 60000 T02280083 10239 20167 56010 $

More Conditions Fewer Conditions

10-Day Weather Forecast

Almanac

Astronomy

May. 25, 2015 Rise Set
Actual Time
Civil Twilight
Nautical Twilight
Astronomical Twilight
Moon
Length of Visible Light
Length of Day
Tomorrow will be .
, % of the Moon is Illuminated

Today's Extremes

State Highs State Lows

Community

WunderPhotos

Upload Photos

1,824,190 photos uploaded!

WunderBlogs® & News

Nearby

Air Quality

  Air Quality AQ Index Pollutant
Not available.

Snow Depth

Station Depth Elevation

Earthquake Activity

City Distance Mag. Time & Date
Minimum magnitude displayed is 2.5.

Coastal Water Temperatures

Place Temperature

Stations

Nearby Weather Stations

Station Location Temp. Windchill Dew Point Humidity Wind Precip. Elev Updated Type